sensor_id;sensor_type;location;lat;lon;timestamp;P1;durP1;ratioP1;P2;durP2;ratioP2
8594;SDS011;4335;48.860;9.198;2022-11-06T00:00:34;13.00;;;11.23;;
8594;SDS011;4335;48.860;9.198;2022-11-06T00:03:02;13.10;;;10.47;;
8594;SDS011;4335;48.860;9.198;2022-11-06T00:05:30;15.50;;;11.30;;
8594;SDS011;4335;48.860;9.198;2022-11-06T00:08:21;15.50;;;11.20;;
8594;SDS011;4335;48.860;9.198;2022-11-06T00:10:52;13.13;;;9.90;;
8594;SDS011;4335;48.860;9.198;2022-11-06T00:13:21;16.60;;;10.90;;
8594;SDS011;4335;48.860;9.198;2022-11-06T00:15:48;14.97;;;11.63;;
8594;SDS011;4335;48.860;9.198;2022-11-06T00:18:16;13.03;;;11.17;;
8594;SDS011;4335;48.860;9.198;2022-11-06T00:20:44;13.20;;;10.67;;
8594;SDS011;4335;48.860;9.198;2022-11-06T00:23:12;12.90;;;10.90;;
8594;SDS011;4335;48.860;9.198;2022-11-06T00:25:42;13.10;;;11.07;;
8594;SDS011;4335;48.860;9.198;2022-11-06T00:28:10;12.30;;;10.50;;
8594;SDS011;4335;48.860;9.198;2022-11-06T00:30:39;13.70;;;11.03;;
8594;SDS011;4335;48.860;9.198;2022-11-06T00:33:06;13.03;;;10.23;;
8594;SDS011;4335;48.860;9.198;2022-11-06T00:35:36;12.70;;;10.40;;
8594;SDS011;4335;48.860;9.198;2022-11-06T00:38:04;13.30;;;11.13;;
8594;SDS011;4335;48.860;9.198;2022-11-06T00:40:34;14.27;;;10.37;;
8594;SDS011;4335;48.860;9.198;2022-11-06T00:43:02;12.17;;;10.63;;
8594;SDS011;4335;48.860;9.198;2022-11-06T00:45:29;15.20;;;11.30;;
8594;SDS011;4335;48.860;9.198;2022-11-06T00:47:58;12.83;;;10.10;;
8594;SDS011;4335;48.860;9.198;2022-11-06T00:50:26;14.33;;;10.43;;
8594;SDS011;4335;48.860;9.198;2022-11-06T00:52:53;14.33;;;10.17;;
8594;SDS011;4335;48.860;9.198;2022-11-06T00:55:24;15.10;;;11.13;;
8594;SDS011;4335;48.860;9.198;2022-11-06T00:57:51;16.33;;;11.50;;
8594;SDS011;4335;48.860;9.198;2022-11-06T01:00:18;14.47;;;10.97;;
8594;SDS011;4335;48.860;9.198;2022-11-06T01:02:46;15.90;;;11.77;;
8594;SDS011;4335;48.860;9.198;2022-11-06T01:05:18;15.80;;;10.50;;
8594;SDS011;4335;48.860;9.198;2022-11-06T01:07:48;13.27;;;11.13;;
8594;SDS011;4335;48.860;9.198;2022-11-06T01:10:16;12.93;;;10.80;;
8594;SDS011;4335;48.860;9.198;2022-11-06T01:12:43;14.20;;;10.87;;
8594;SDS011;4335;48.860;9.198;2022-11-06T01:15:10;12.33;;;10.63;;
8594;SDS011;4335;48.860;9.198;2022-11-06T01:17:38;13.10;;;10.27;;
8594;SDS011;4335;48.860;9.198;2022-11-06T01:20:05;13.37;;;10.33;;
8594;SDS011;4335;48.860;9.198;2022-11-06T01:22:38;17.27;;;10.67;;
8594;SDS011;4335;48.860;9.198;2022-11-06T01:25:06;13.53;;;10.07;;
8594;SDS011;4335;48.860;9.198;2022-11-06T01:27:34;16.13;;;10.37;;
8594;SDS011;4335;48.860;9.198;2022-11-06T01:30:02;16.73;;;13.37;;
8594;SDS011;4335;48.860;9.198;2022-11-06T01:32:30;14.00;;;10.83;;
8594;SDS011;4335;48.860;9.198;2022-11-06T01:35:00;21.90;;;14.37;;
8594;SDS011;4335;48.860;9.198;2022-11-06T01:37:28;15.67;;;11.10;;
8594;SDS011;4335;48.860;9.198;2022-11-06T01:40:02;13.40;;;10.60;;
8594;SDS011;4335;48.860;9.198;2022-11-06T01:42:30;11.60;;;9.90;;
8594;SDS011;4335;48.860;9.198;2022-11-06T01:45:06;11.53;;;10.00;;
8594;SDS011;4335;48.860;9.198;2022-11-06T01:47:51;14.30;;;10.67;;
8594;SDS011;4335;48.860;9.198;2022-11-06T01:50:18;12.93;;;10.43;;
8594;SDS011;4335;48.860;9.198;2022-11-06T01:52:46;14.50;;;10.90;;
8594;SDS011;4335;48.860;9.198;2022-11-06T01:55:18;13.13;;;10.37;;
8594;SDS011;4335;48.860;9.198;2022-11-06T01:57:49;12.03;;;10.00;;
8594;SDS011;4335;48.860;9.198;2022-11-06T02:00:20;15.10;;;10.77;;
8594;SDS011;4335;48.860;9.198;2022-11-06T02:02:51;12.53;;;11.03;;
8594;SDS011;4335;48.860;9.198;2022-11-06T02:05:19;12.80;;;9.17;;
8594;SDS011;4335;48.860;9.198;2022-11-06T02:07:49;15.27;;;10.87;;
8594;SDS011;4335;48.860;9.198;2022-11-06T02:10:19;13.63;;;10.83;;
8594;SDS011;4335;48.860;9.198;2022-11-06T02:13:00;15.40;;;11.13;;
8594;SDS011;4335;48.860;9.198;2022-11-06T02:15:45;11.43;;;9.93;;
8594;SDS011;4335;48.860;9.198;2022-11-06T02:18:28;15.30;;;10.03;;
8594;SDS011;4335;48.860;9.198;2022-11-06T02:21:21;13.33;;;10.67;;
8594;SDS011;4335;48.860;9.198;2022-11-06T02:24:09;10.90;;;9.63;;
8594;SDS011;4335;48.860;9.198;2022-11-06T02:29:41;11.67;;;10.07;;
8594;SDS011;4335;48.860;9.198;2022-11-06T02:32:15;10.93;;;9.67;;
8594;SDS011;4335;48.860;9.198;2022-11-06T02:34:47;12.53;;;9.80;;
8594;SDS011;4335;48.860;9.198;2022-11-06T02:37:23;11.33;;;8.83;;
8594;SDS011;4335;48.860;9.198;2022-11-06T02:39:54;11.13;;;9.03;;
8594;SDS011;4335;48.860;9.198;2022-11-06T02:42:27;12.97;;;9.67;;
8594;SDS011;4335;48.860;9.198;2022-11-06T02:44:59;12.10;;;9.50;;
8594;SDS011;4335;48.860;9.198;2022-11-06T02:47:30;12.77;;;9.67;;
8594;SDS011;4335;48.860;9.198;2022-11-06T02:50:00;12.90;;;8.07;;
8594;SDS011;4335;48.860;9.198;2022-11-06T02:52:31;11.63;;;9.07;;
8594;SDS011;4335;48.860;9.198;2022-11-06T02:55:03;11.57;;;8.97;;
8594;SDS011;4335;48.860;9.198;2022-11-06T02:57:40;10.73;;;9.53;;
8594;SDS011;4335;48.860;9.198;2022-11-06T03:00:12;13.87;;;10.43;;
8594;SDS011;4335;48.860;9.198;2022-11-06T03:02:43;11.40;;;9.50;;
8594;SDS011;4335;48.860;9.198;2022-11-06T03:05:16;12.70;;;9.13;;
8594;SDS011;4335;48.860;9.198;2022-11-06T03:08:00;12.67;;;10.30;;
8594;SDS011;4335;48.860;9.198;2022-11-06T03:10:32;12.93;;;9.87;;
8594;SDS011;4335;48.860;9.198;2022-11-06T03:13:13;10.93;;;9.73;;
8594;SDS011;4335;48.860;9.198;2022-11-06T03:15:47;16.47;;;10.73;;
8594;SDS011;4335;48.860;9.198;2022-11-06T03:18:26;10.83;;;9.70;;
8594;SDS011;4335;48.860;9.198;2022-11-06T03:21:06;13.17;;;9.53;;
8594;SDS011;4335;48.860;9.198;2022-11-06T03:23:43;12.77;;;9.83;;
8594;SDS011;4335;48.860;9.198;2022-11-06T03:26:18;13.73;;;9.60;;
8594;SDS011;4335;48.860;9.198;2022-11-06T03:28:51;12.27;;;9.40;;
8594;SDS011;4335;48.860;9.198;2022-11-06T03:31:23;10.87;;;8.80;;
8594;SDS011;4335;48.860;9.198;2022-11-06T03:33:56;11.13;;;9.27;;
8594;SDS011;4335;48.860;9.198;2022-11-06T03:36:28;12.10;;;9.63;;
8594;SDS011;4335;48.860;9.198;2022-11-06T03:39:00;11.73;;;9.97;;
8594;SDS011;4335;48.860;9.198;2022-11-06T03:41:32;12.17;;;9.40;;
8594;SDS011;4335;48.860;9.198;2022-11-06T03:44:05;10.10;;;9.00;;
8594;SDS011;4335;48.860;9.198;2022-11-06T03:46:39;12.07;;;9.20;;
8594;SDS011;4335;48.860;9.198;2022-11-06T03:49:12;9.53;;;8.30;;
8594;SDS011;4335;48.860;9.198;2022-11-06T03:51:45;10.33;;;8.90;;
8594;SDS011;4335;48.860;9.198;2022-11-06T03:54:17;10.43;;;8.63;;
8594;SDS011;4335;48.860;9.198;2022-11-06T03:56:50;9.77;;;8.13;;
8594;SDS011;4335;48.860;9.198;2022-11-06T03:59:24;9.43;;;8.27;;
8594;SDS011;4335;48.860;9.198;2022-11-06T04:01:57;11.37;;;8.90;;
8594;SDS011;4335;48.860;9.198;2022-11-06T04:04:31;10.80;;;7.90;;
8594;SDS011;4335;48.860;9.198;2022-11-06T04:07:04;11.37;;;8.77;;
8594;SDS011;4335;48.860;9.198;2022-11-06T04:09:34;8.73;;;7.57;;
8594;SDS011;4335;48.860;9.198;2022-11-06T04:12:24;9.03;;;7.93;;
8594;SDS011;4335;48.860;9.198;2022-11-06T04:15:13;11.00;;;7.70;;
8594;SDS011;4335;48.860;9.198;2022-11-06T04:17:46;9.20;;;7.83;;
8594;SDS011;4335;48.860;9.198;2022-11-06T04:20:17;9.57;;;8.00;;
8594;SDS011;4335;48.860;9.198;2022-11-06T04:23:09;8.60;;;7.37;;
8594;SDS011;4335;48.860;9.198;2022-11-06T04:25:46;10.60;;;8.40;;
8594;SDS011;4335;48.860;9.198;2022-11-06T04:28:41;8.67;;;7.80;;
8594;SDS011;4335;48.860;9.198;2022-11-06T04:31:17;9.50;;;7.50;;
8594;SDS011;4335;48.860;9.198;2022-11-06T04:33:57;9.67;;;8.00;;
8594;SDS011;4335;48.860;9.198;2022-11-06T04:36:31;9.80;;;8.30;;
8594;SDS011;4335;48.860;9.198;2022-11-06T04:39:09;8.80;;;7.87;;
8594;SDS011;4335;48.860;9.198;2022-11-06T04:41:41;10.00;;;8.20;;
8594;SDS011;4335;48.860;9.198;2022-11-06T04:44:12;10.27;;;8.37;;
8594;SDS011;4335;48.860;9.198;2022-11-06T04:46:46;8.83;;;7.70;;
8594;SDS011;4335;48.860;9.198;2022-11-06T04:49:20;10.17;;;7.87;;
8594;SDS011;4335;48.860;9.198;2022-11-06T04:51:49;11.40;;;8.90;;
8594;SDS011;4335;48.860;9.198;2022-11-06T04:54:17;8.63;;;7.17;;
8594;SDS011;4335;48.860;9.198;2022-11-06T04:56:45;7.33;;;6.63;;
8594;SDS011;4335;48.860;9.198;2022-11-06T04:59:13;9.40;;;7.63;;
8594;SDS011;4335;48.860;9.198;2022-11-06T05:01:43;9.23;;;8.33;;
8594;SDS011;4335;48.860;9.198;2022-11-06T05:04:15;8.10;;;7.30;;
8594;SDS011;4335;48.860;9.198;2022-11-06T05:06:42;11.80;;;8.03;;
8594;SDS011;4335;48.860;9.198;2022-11-06T05:09:12;9.53;;;8.07;;
8594;SDS011;4335;48.860;9.198;2022-11-06T05:11:40;9.20;;;7.87;;
8594;SDS011;4335;48.860;9.198;2022-11-06T05:14:07;9.93;;;7.60;;
8594;SDS011;4335;48.860;9.198;2022-11-06T05:16:35;10.30;;;7.43;;
8594;SDS011;4335;48.860;9.198;2022-11-06T05:19:03;10.60;;;7.00;;
8594;SDS011;4335;48.860;9.198;2022-11-06T05:21:38;7.80;;;6.90;;
8594;SDS011;4335;48.860;9.198;2022-11-06T05:24:23;8.07;;;7.03;;
8594;SDS011;4335;48.860;9.198;2022-11-06T05:26:50;10.37;;;7.77;;
8594;SDS011;4335;48.860;9.198;2022-11-06T05:29:18;10.30;;;8.17;;
8594;SDS011;4335;48.860;9.198;2022-11-06T05:31:57;11.00;;;7.57;;
8594;SDS011;4335;48.860;9.198;2022-11-06T05:34:26;9.20;;;7.67;;
8594;SDS011;4335;48.860;9.198;2022-11-06T05:36:53;11.37;;;6.93;;
8594;SDS011;4335;48.860;9.198;2022-11-06T05:39:22;37.90;;;10.13;;
8594;SDS011;4335;48.860;9.198;2022-11-06T05:41:49;14.77;;;7.37;;
8594;SDS011;4335;48.860;9.198;2022-11-06T05:44:16;9.30;;;7.53;;
8594;SDS011;4335;48.860;9.198;2022-11-06T05:46:50;15.80;;;8.17;;
8594;SDS011;4335;48.860;9.198;2022-11-06T05:49:17;8.97;;;7.37;;
8594;SDS011;4335;48.860;9.198;2022-11-06T05:51:46;10.00;;;7.30;;
8594;SDS011;4335;48.860;9.198;2022-11-06T05:54:14;9.93;;;7.40;;
8594;SDS011;4335;48.860;9.198;2022-11-06T05:56:41;9.47;;;8.07;;
8594;SDS011;4335;48.860;9.198;2022-11-06T05:59:12;12.53;;;8.37;;
8594;SDS011;4335;48.860;9.198;2022-11-06T06:01:42;12.57;;;8.03;;
8594;SDS011;4335;48.860;9.198;2022-11-06T06:04:09;8.60;;;7.70;;
8594;SDS011;4335;48.860;9.198;2022-11-06T06:06:40;8.37;;;7.57;;
8594;SDS011;4335;48.860;9.198;2022-11-06T06:09:11;7.97;;;7.13;;
8594;SDS011;4335;48.860;9.198;2022-11-06T06:11:51;7.53;;;6.80;;
8594;SDS011;4335;48.860;9.198;2022-11-06T06:14:19;8.33;;;7.20;;
8594;SDS011;4335;48.860;9.198;2022-11-06T06:16:47;7.33;;;6.53;;
8594;SDS011;4335;48.860;9.198;2022-11-06T06:19:14;8.23;;;6.77;;
8594;SDS011;4335;48.860;9.198;2022-11-06T06:21:42;8.37;;;6.97;;
8594;SDS011;4335;48.860;9.198;2022-11-06T06:24:17;7.33;;;6.63;;
8594;SDS011;4335;48.860;9.198;2022-11-06T06:26:44;7.70;;;6.90;;
8594;SDS011;4335;48.860;9.198;2022-11-06T06:29:15;8.20;;;7.40;;
8594;SDS011;4335;48.860;9.198;2022-11-06T06:31:46;18.63;;;8.53;;
8594;SDS011;4335;48.860;9.198;2022-11-06T06:34:14;12.20;;;7.83;;
8594;SDS011;4335;48.860;9.198;2022-11-06T06:36:41;18.37;;;8.57;;
8594;SDS011;4335;48.860;9.198;2022-11-06T06:39:09;7.47;;;6.50;;
8594;SDS011;4335;48.860;9.198;2022-11-06T06:41:38;8.87;;;7.67;;
8594;SDS011;4335;48.860;9.198;2022-11-06T06:44:08;9.17;;;6.90;;
8594;SDS011;4335;48.860;9.198;2022-11-06T06:46:35;21.97;;;8.40;;
8594;SDS011;4335;48.860;9.198;2022-11-06T06:49:03;7.47;;;6.67;;
8594;SDS011;4335;48.860;9.198;2022-11-06T06:51:32;7.73;;;6.93;;
8594;SDS011;4335;48.860;9.198;2022-11-06T06:54:00;7.40;;;6.23;;
8594;SDS011;4335;48.860;9.198;2022-11-06T06:56:28;7.90;;;6.90;;
8594;SDS011;4335;48.860;9.198;2022-11-06T06:58:56;9.23;;;7.07;;
8594;SDS011;4335;48.860;9.198;2022-11-06T07:01:24;8.70;;;6.87;;
8594;SDS011;4335;48.860;9.198;2022-11-06T07:03:51;7.23;;;6.17;;
8594;SDS011;4335;48.860;9.198;2022-11-06T07:06:19;7.23;;;6.20;;
8594;SDS011;4335;48.860;9.198;2022-11-06T07:08:49;8.63;;;6.73;;
8594;SDS011;4335;48.860;9.198;2022-11-06T07:11:19;16.03;;;7.97;;
8594;SDS011;4335;48.860;9.198;2022-11-06T07:13:46;15.13;;;8.80;;
8594;SDS011;4335;48.860;9.198;2022-11-06T07:16:15;8.70;;;7.33;;
8594;SDS011;4335;48.860;9.198;2022-11-06T07:18:43;9.33;;;7.33;;
8594;SDS011;4335;48.860;9.198;2022-11-06T07:21:10;12.37;;;8.10;;
8594;SDS011;4335;48.860;9.198;2022-11-06T07:23:38;15.27;;;8.20;;
8594;SDS011;4335;48.860;9.198;2022-11-06T07:26:06;11.20;;;7.07;;
8594;SDS011;4335;48.860;9.198;2022-11-06T07:28:33;13.83;;;6.93;;
8594;SDS011;4335;48.860;9.198;2022-11-06T07:31:02;10.87;;;7.57;;
8594;SDS011;4335;48.860;9.198;2022-11-06T07:33:32;11.60;;;6.87;;
8594;SDS011;4335;48.860;9.198;2022-11-06T07:36:03;12.57;;;7.30;;
8594;SDS011;4335;48.860;9.198;2022-11-06T07:38:31;9.73;;;6.77;;
8594;SDS011;4335;48.860;9.198;2022-11-06T07:41:02;7.80;;;5.90;;
8594;SDS011;4335;48.860;9.198;2022-11-06T07:43:31;6.77;;;5.77;;
8594;SDS011;4335;48.860;9.198;2022-11-06T07:45:59;5.63;;;5.03;;
8594;SDS011;4335;48.860;9.198;2022-11-06T07:48:27;7.50;;;5.63;;
8594;SDS011;4335;48.860;9.198;2022-11-06T07:50:56;8.20;;;6.43;;
8594;SDS011;4335;48.860;9.198;2022-11-06T07:53:24;7.70;;;5.57;;
8594;SDS011;4335;48.860;9.198;2022-11-06T07:55:52;6.37;;;5.40;;
8594;SDS011;4335;48.860;9.198;2022-11-06T07:58:24;6.83;;;5.90;;
8594;SDS011;4335;48.860;9.198;2022-11-06T08:00:52;6.53;;;5.80;;
8594;SDS011;4335;48.860;9.198;2022-11-06T08:03:25;7.17;;;6.03;;
8594;SDS011;4335;48.860;9.198;2022-11-06T08:05:54;6.80;;;5.67;;
8594;SDS011;4335;48.860;9.198;2022-11-06T08:08:23;11.30;;;6.03;;
8594;SDS011;4335;48.860;9.198;2022-11-06T08:10:59;7.73;;;6.50;;
8594;SDS011;4335;48.860;9.198;2022-11-06T08:13:27;8.87;;;7.67;;
8594;SDS011;4335;48.860;9.198;2022-11-06T08:16:02;8.40;;;6.43;;
8594;SDS011;4335;48.860;9.198;2022-11-06T08:18:30;8.07;;;6.20;;
8594;SDS011;4335;48.860;9.198;2022-11-06T08:21:01;8.13;;;7.03;;
8594;SDS011;4335;48.860;9.198;2022-11-06T08:23:33;10.10;;;7.93;;
8594;SDS011;4335;48.860;9.198;2022-11-06T08:26:02;10.23;;;7.53;;
8594;SDS011;4335;48.860;9.198;2022-11-06T08:28:34;9.17;;;6.43;;
8594;SDS011;4335;48.860;9.198;2022-11-06T08:31:04;7.20;;;5.70;;
8594;SDS011;4335;48.860;9.198;2022-11-06T08:33:36;9.33;;;6.30;;
8594;SDS011;4335;48.860;9.198;2022-11-06T08:36:05;7.70;;;5.90;;
8594;SDS011;4335;48.860;9.198;2022-11-06T08:38:35;7.13;;;6.17;;
8594;SDS011;4335;48.860;9.198;2022-11-06T08:41:05;7.43;;;5.73;;
8594;SDS011;4335;48.860;9.198;2022-11-06T08:43:34;7.23;;;6.40;;
8594;SDS011;4335;48.860;9.198;2022-11-06T08:46:05;7.40;;;6.10;;
8594;SDS011;4335;48.860;9.198;2022-11-06T08:48:37;7.10;;;6.13;;
8594;SDS011;4335;48.860;9.198;2022-11-06T08:51:05;8.53;;;6.10;;
8594;SDS011;4335;48.860;9.198;2022-11-06T08:53:32;6.67;;;6.07;;
8594;SDS011;4335;48.860;9.198;2022-11-06T08:56:01;7.10;;;5.83;;
8594;SDS011;4335;48.860;9.198;2022-11-06T08:58:29;8.73;;;6.63;;
8594;SDS011;4335;48.860;9.198;2022-11-06T09:00:59;6.83;;;6.13;;
8594;SDS011;4335;48.860;9.198;2022-11-06T09:03:26;7.47;;;6.23;;
8594;SDS011;4335;48.860;9.198;2022-11-06T09:05:53;6.60;;;5.70;;
8594;SDS011;4335;48.860;9.198;2022-11-06T09:08:21;8.50;;;6.27;;
8594;SDS011;4335;48.860;9.198;2022-11-06T09:10:50;7.57;;;6.60;;
8594;SDS011;4335;48.860;9.198;2022-11-06T09:13:18;8.37;;;7.17;;
8594;SDS011;4335;48.860;9.198;2022-11-06T09:15:45;9.63;;;7.50;;
8594;SDS011;4335;48.860;9.198;2022-11-06T09:18:13;9.40;;;6.87;;
8594;SDS011;4335;48.860;9.198;2022-11-06T09:20:40;7.97;;;6.43;;
8594;SDS011;4335;48.860;9.198;2022-11-06T09:23:13;10.97;;;7.70;;
8594;SDS011;4335;48.860;9.198;2022-11-06T09:25:44;11.37;;;6.80;;
8594;SDS011;4335;48.860;9.198;2022-11-06T09:28:12;9.43;;;6.47;;
8594;SDS011;4335;48.860;9.198;2022-11-06T09:30:40;12.47;;;7.63;;
8594;SDS011;4335;48.860;9.198;2022-11-06T09:33:10;8.93;;;7.17;;
8594;SDS011;4335;48.860;9.198;2022-11-06T09:35:38;9.13;;;7.30;;
8594;SDS011;4335;48.860;9.198;2022-11-06T09:38:07;8.60;;;7.40;;
8594;SDS011;4335;48.860;9.198;2022-11-06T09:40:36;9.30;;;7.67;;
8594;SDS011;4335;48.860;9.198;2022-11-06T09:43:10;7.70;;;6.83;;
8594;SDS011;4335;48.860;9.198;2022-11-06T09:45:49;8.17;;;6.47;;
8594;SDS011;4335;48.860;9.198;2022-11-06T09:48:23;13.47;;;7.77;;
8594;SDS011;4335;48.860;9.198;2022-11-06T09:50:55;10.37;;;7.10;;
8594;SDS011;4335;48.860;9.198;2022-11-06T09:53:26;9.30;;;7.77;;
8594;SDS011;4335;48.860;9.198;2022-11-06T09:55:58;7.90;;;6.57;;
8594;SDS011;4335;48.860;9.198;2022-11-06T09:58:29;7.87;;;6.23;;
8594;SDS011;4335;48.860;9.198;2022-11-06T10:01:04;8.53;;;6.53;;
8594;SDS011;4335;48.860;9.198;2022-11-06T10:03:39;6.83;;;5.77;;
8594;SDS011;4335;48.860;9.198;2022-11-06T10:06:10;7.83;;;6.17;;
8594;SDS011;4335;48.860;9.198;2022-11-06T10:08:39;8.00;;;6.27;;
8594;SDS011;4335;48.860;9.198;2022-11-06T10:11:20;6.63;;;5.47;;
8594;SDS011;4335;48.860;9.198;2022-11-06T10:14:10;6.20;;;5.60;;
8594;SDS011;4335;48.860;9.198;2022-11-06T10:16:53;7.47;;;5.93;;
8594;SDS011;4335;48.860;9.198;2022-11-06T10:19:31;8.63;;;6.70;;
8594;SDS011;4335;48.860;9.198;2022-11-06T10:22:09;6.63;;;5.77;;
8594;SDS011;4335;48.860;9.198;2022-11-06T10:24:43;6.33;;;5.57;;
8594;SDS011;4335;48.860;9.198;2022-11-06T10:27:15;6.77;;;5.47;;
8594;SDS011;4335;48.860;9.198;2022-11-06T10:32:44;6.47;;;5.50;;
8594;SDS011;4335;48.860;9.198;2022-11-06T10:35:32;6.07;;;5.17;;
8594;SDS011;4335;48.860;9.198;2022-11-06T10:38:06;5.53;;;5.03;;
8594;SDS011;4335;48.860;9.198;2022-11-06T10:40:37;5.50;;;5.00;;
8594;SDS011;4335;48.860;9.198;2022-11-06T10:43:13;7.30;;;4.70;;
8594;SDS011;4335;48.860;9.198;2022-11-06T10:45:52;6.63;;;5.50;;
8594;SDS011;4335;48.860;9.198;2022-11-06T10:48:27;6.30;;;5.00;;
8594;SDS011;4335;48.860;9.198;2022-11-06T10:50:59;5.17;;;4.67;;
8594;SDS011;4335;48.860;9.198;2022-11-06T10:53:41;5.07;;;4.57;;
8594;SDS011;4335;48.860;9.198;2022-11-06T10:56:24;7.73;;;4.80;;
8594;SDS011;4335;48.860;9.198;2022-11-06T10:59:04;5.83;;;4.50;;
8594;SDS011;4335;48.860;9.198;2022-11-06T11:01:34;5.23;;;4.73;;
8594;SDS011;4335;48.860;9.198;2022-11-06T11:04:03;6.63;;;4.60;;
8594;SDS011;4335;48.860;9.198;2022-11-06T11:06:31;10.63;;;9.37;;
8594;SDS011;4335;48.860;9.198;2022-11-06T11:08:58;6.13;;;4.83;;
8594;SDS011;4335;48.860;9.198;2022-11-06T11:11:26;5.20;;;4.70;;
8594;SDS011;4335;48.860;9.198;2022-11-06T11:14:13;5.87;;;4.80;;
8594;SDS011;4335;48.860;9.198;2022-11-06T11:16:49;6.27;;;4.73;;
8594;SDS011;4335;48.860;9.198;2022-11-06T11:19:24;6.57;;;4.80;;
8594;SDS011;4335;48.860;9.198;2022-11-06T11:22:01;6.97;;;5.20;;
8594;SDS011;4335;48.860;9.198;2022-11-06T11:24:30;7.20;;;5.40;;
8594;SDS011;4335;48.860;9.198;2022-11-06T11:26:58;6.27;;;4.90;;
8594;SDS011;4335;48.860;9.198;2022-11-06T11:29:28;5.40;;;4.63;;
8594;SDS011;4335;48.860;9.198;2022-11-06T11:31:59;5.00;;;4.50;;
8594;SDS011;4335;48.860;9.198;2022-11-06T11:34:31;7.33;;;5.83;;
8594;SDS011;4335;48.860;9.198;2022-11-06T11:37:03;7.10;;;5.30;;
8594;SDS011;4335;48.860;9.198;2022-11-06T11:39:32;5.27;;;4.70;;
8594;SDS011;4335;48.860;9.198;2022-11-06T11:42:23;5.27;;;4.57;;
8594;SDS011;4335;48.860;9.198;2022-11-06T11:45:10;5.87;;;4.23;;
8594;SDS011;4335;48.860;9.198;2022-11-06T11:47:42;5.50;;;4.60;;
8594;SDS011;4335;48.860;9.198;2022-11-06T11:50:18;5.83;;;4.47;;
8594;SDS011;4335;48.860;9.198;2022-11-06T11:52:55;5.40;;;4.63;;
8594;SDS011;4335;48.860;9.198;2022-11-06T11:55:34;6.40;;;4.93;;
8594;SDS011;4335;48.860;9.198;2022-11-06T11:58:05;6.90;;;5.03;;
8594;SDS011;4335;48.860;9.198;2022-11-06T12:00:52;7.03;;;5.37;;
8594;SDS011;4335;48.860;9.198;2022-11-06T12:03:23;5.53;;;4.87;;
8594;SDS011;4335;48.860;9.198;2022-11-06T12:05:53;5.37;;;4.53;;
8594;SDS011;4335;48.860;9.198;2022-11-06T12:08:37;5.70;;;4.60;;
8594;SDS011;4335;48.860;9.198;2022-11-06T12:11:12;9.30;;;6.10;;
8594;SDS011;4335;48.860;9.198;2022-11-06T12:16:51;5.57;;;4.70;;
8594;SDS011;4335;48.860;9.198;2022-11-06T12:19:23;5.97;;;5.40;;
8594;SDS011;4335;48.860;9.198;2022-11-06T12:21:55;7.57;;;6.03;;
8594;SDS011;4335;48.860;9.198;2022-11-06T12:24:26;5.30;;;4.50;;
8594;SDS011;4335;48.860;9.198;2022-11-06T12:27:05;6.90;;;5.67;;
8594;SDS011;4335;48.860;9.198;2022-11-06T12:29:37;5.53;;;4.43;;
8594;SDS011;4335;48.860;9.198;2022-11-06T12:32:07;4.80;;;4.30;;
8594;SDS011;4335;48.860;9.198;2022-11-06T12:34:46;4.30;;;3.90;;
8594;SDS011;4335;48.860;9.198;2022-11-06T12:37:19;3.73;;;2.90;;
8594;SDS011;4335;48.860;9.198;2022-11-06T12:39:51;3.10;;;2.73;;
8594;SDS011;4335;48.860;9.198;2022-11-06T12:42:24;4.03;;;2.77;;
8594;SDS011;4335;48.860;9.198;2022-11-06T12:44:55;3.67;;;3.27;;
8594;SDS011;4335;48.860;9.198;2022-11-06T12:47:26;2.83;;;2.60;;
8594;SDS011;4335;48.860;9.198;2022-11-06T12:50:17;3.00;;;2.70;;
8594;SDS011;4335;48.860;9.198;2022-11-06T12:53:15;3.30;;;2.90;;
8594;SDS011;4335;48.860;9.198;2022-11-06T12:55:53;3.03;;;2.70;;
8594;SDS011;4335;48.860;9.198;2022-11-06T12:58:36;3.27;;;2.97;;
8594;SDS011;4335;48.860;9.198;2022-11-06T13:01:18;3.47;;;2.40;;
8594;SDS011;4335;48.860;9.198;2022-11-06T13:04:03;2.87;;;2.57;;
8594;SDS011;4335;48.860;9.198;2022-11-06T13:07:02;2.87;;;2.67;;
8594;SDS011;4335;48.860;9.198;2022-11-06T13:09:41;3.60;;;3.10;;
8594;SDS011;4335;48.860;9.198;2022-11-06T13:12:17;3.90;;;3.10;;
8594;SDS011;4335;48.860;9.198;2022-11-06T13:14:57;4.63;;;2.73;;
8594;SDS011;4335;48.860;9.198;2022-11-06T13:17:34;3.27;;;2.97;;
8594;SDS011;4335;48.860;9.198;2022-11-06T13:20:07;3.10;;;2.80;;
8594;SDS011;4335;48.860;9.198;2022-11-06T13:22:43;3.73;;;2.70;;
8594;SDS011;4335;48.860;9.198;2022-11-06T13:25:18;3.07;;;2.77;;
8594;SDS011;4335;48.860;9.198;2022-11-06T13:27:50;3.33;;;2.70;;
8594;SDS011;4335;48.860;9.198;2022-11-06T13:30:24;4.07;;;2.80;;
8594;SDS011;4335;48.860;9.198;2022-11-06T13:32:57;3.03;;;2.73;;
8594;SDS011;4335;48.860;9.198;2022-11-06T13:35:30;3.17;;;2.80;;
8594;SDS011;4335;48.860;9.198;2022-11-06T13:38:01;2.90;;;2.60;;
8594;SDS011;4335;48.860;9.198;2022-11-06T13:40:32;3.20;;;2.90;;
8594;SDS011;4335;48.860;9.198;2022-11-06T13:43:05;3.10;;;2.80;;
8594;SDS011;4335;48.860;9.198;2022-11-06T13:45:40;2.90;;;2.50;;
8594;SDS011;4335;48.860;9.198;2022-11-06T13:48:22;2.63;;;2.43;;
8594;SDS011;4335;48.860;9.198;2022-11-06T13:50:58;3.50;;;2.93;;
8594;SDS011;4335;48.860;9.198;2022-11-06T13:53:38;3.00;;;2.77;;
8594;SDS011;4335;48.860;9.198;2022-11-06T13:56:13;4.57;;;3.00;;
8594;SDS011;4335;48.860;9.198;2022-11-06T13:59:01;2.73;;;2.30;;
8594;SDS011;4335;48.860;9.198;2022-11-06T14:01:50;3.17;;;2.87;;
8594;SDS011;4335;48.860;9.198;2022-11-06T14:04:29;5.63;;;4.10;;
8594;SDS011;4335;48.860;9.198;2022-11-06T14:07:08;3.17;;;2.87;;
8594;SDS011;4335;48.860;9.198;2022-11-06T14:09:39;3.10;;;2.73;;
8594;SDS011;4335;48.860;9.198;2022-11-06T14:12:11;5.10;;;3.10;;
8594;SDS011;4335;48.860;9.198;2022-11-06T14:14:42;3.47;;;3.17;;
8594;SDS011;4335;48.860;9.198;2022-11-06T14:17:11;3.30;;;3.00;;
8594;SDS011;4335;48.860;9.198;2022-11-06T14:19:59;3.50;;;3.20;;
8594;SDS011;4335;48.860;9.198;2022-11-06T14:22:28;3.40;;;2.93;;
8594;SDS011;4335;48.860;9.198;2022-11-06T14:28:04;3.77;;;3.47;;
8594;SDS011;4335;48.860;9.198;2022-11-06T14:30:39;4.90;;;4.37;;
8594;SDS011;4335;48.860;9.198;2022-11-06T14:33:09;4.53;;;3.50;;
8594;SDS011;4335;48.860;9.198;2022-11-06T14:36:09;3.23;;;2.90;;
8594;SDS011;4335;48.860;9.198;2022-11-06T14:38:39;3.60;;;3.30;;
8594;SDS011;4335;48.860;9.198;2022-11-06T14:44:25;4.17;;;2.70;;
8594;SDS011;4335;48.860;9.198;2022-11-06T14:52:54;3.13;;;2.60;;
8594;SDS011;4335;48.860;9.198;2022-11-06T14:55:31;3.57;;;3.17;;
8594;SDS011;4335;48.860;9.198;2022-11-06T14:58:12;3.27;;;2.57;;
8594;SDS011;4335;48.860;9.198;2022-11-06T15:00:48;5.00;;;3.33;;
8594;SDS011;4335;48.860;9.198;2022-11-06T15:03:23;4.33;;;3.07;;
8594;SDS011;4335;48.860;9.198;2022-11-06T15:05:58;6.43;;;3.30;;
8594;SDS011;4335;48.860;9.198;2022-11-06T15:17:26;3.83;;;3.53;;
8594;SDS011;4335;48.860;9.198;2022-11-06T15:20:05;3.83;;;3.43;;
8594;SDS011;4335;48.860;9.198;2022-11-06T15:22:45;4.23;;;3.83;;
8594;SDS011;4335;48.860;9.198;2022-11-06T15:25:19;3.90;;;3.50;;
8594;SDS011;4335;48.860;9.198;2022-11-06T15:27:54;4.50;;;3.70;;
8594;SDS011;4335;48.860;9.198;2022-11-06T15:30:24;4.27;;;3.73;;
8594;SDS011;4335;48.860;9.198;2022-11-06T15:32:58;4.03;;;3.63;;
8594;SDS011;4335;48.860;9.198;2022-11-06T15:35:32;4.40;;;3.70;;
8594;SDS011;4335;48.860;9.198;2022-11-06T15:38:03;3.77;;;3.37;;
8594;SDS011;4335;48.860;9.198;2022-11-06T15:40:35;4.20;;;3.80;;
8594;SDS011;4335;48.860;9.198;2022-11-06T15:43:19;4.03;;;3.63;;
8594;SDS011;4335;48.860;9.198;2022-11-06T15:46:03;4.10;;;3.70;;
8594;SDS011;4335;48.860;9.198;2022-11-06T15:48:37;4.10;;;3.70;;
8594;SDS011;4335;48.860;9.198;2022-11-06T15:51:18;4.50;;;4.10;;
8594;SDS011;4335;48.860;9.198;2022-11-06T15:53:46;3.93;;;3.53;;
8594;SDS011;4335;48.860;9.198;2022-11-06T15:56:14;4.60;;;3.83;;
8594;SDS011;4335;48.860;9.198;2022-11-06T15:58:44;4.03;;;3.63;;
8594;SDS011;4335;48.860;9.198;2022-11-06T16:01:32;4.63;;;3.93;;
8594;SDS011;4335;48.860;9.198;2022-11-06T16:04:03;4.30;;;3.73;;
8594;SDS011;4335;48.860;9.198;2022-11-06T16:06:33;4.60;;;4.10;;
8594;SDS011;4335;48.860;9.198;2022-11-06T16:09:01;5.20;;;3.90;;
8594;SDS011;4335;48.860;9.198;2022-11-06T16:11:33;4.80;;;4.17;;